This is the latest recevied weather packets stored in our database for station/object YO8SSH-13. If no packets are shown the sender has not sent any weather packets the latest 1 day(s).
| Time | Temp. | Humidity | Pressure | Rain* | Wind** | Luminosity | Snow |
|---|---|---|---|---|---|---|---|
| 1778124028 | 11.11° C | 66% | 1011 hPa | 0 mm | - | - | - |
| 1778123127 | 11.11° C | 66% | 1011 hPa | 0 mm | - | - | - |
| 1778122230 | 11.11° C | 65% | 1011 hPa | 0 mm | - | - | - |
| 1778120427 | 11.11° C | 63% | 1011 hPa | 0 mm | - | - | - |
| 1778119527 | 11.11° C | 63% | 1011 hPa | 0 mm | - | - | - |
| 1778118628 | 11.67° C | 62% | 1011 hPa | 0 mm | - | - | - |
| 1778117727 | 11.67° C | 61% | 1011 hPa | 0 mm | - | - | - |
| 1778116826 | 12.22° C | 61% | 1011 hPa | 0 mm | - | - | - |
| 1778115926 | 12.22° C | 59% | 1011 hPa | 0 mm | - | - | - |
| 1778115027 | 12.78° C | 59% | 1011 hPa | 0 mm | - | - | - |
| 1778114127 | 12.78° C | 59% | 1011 hPa | 0 mm | - | - | - |
| 1778113227 | 12.78° C | 59% | 1011 hPa | 0 mm | - | - | - |
| 1778112328 | 13.33° C | 58% | 1010 hPa | 0 mm | - | - | - |
| 1778110528 | 13.33° C | 58% | 1010 hPa | 0 mm | - | - | - |
| 1778106027 | 15° C | 53% | 1010 hPa | 0 mm | - | - | - |
| 1778105128 | 15.56° C | 52% | 1010 hPa | 0 mm | - | - | - |
| 1778102427 | 16.11° C | 48% | 1010 hPa | 0 mm | - | - | - |
| 1778098827 | 17.78° C | 46% | 1010 hPa | 0 mm | - | - | - |
| 1778095227 | 18.89° C | 43% | 1010 hPa | 0 mm | - | - | - |
| 1778093428 | 20° C | 41% | 1009 hPa | 0 mm | - | - | - |
| 1778092528 | 20° C | 40% | 1009 hPa | 0 mm | - | - | - |
| 1778089827 | 21.67° C | 36% | 1009 hPa | 0 mm | - | - | - |
| 1778087128 | 23.33° C | 31% | 1008 hPa | 0 mm | - | - | - |
| 1778082628 | 26.67° C | 26% | 1009 hPa | 0 mm | - | - | - |
| 1778079027 | 27.78° C | 24% | 1009 hPa | 0 mm | - | - | - |
* Rain latest hour (hover to see other rain measurements)
** Current wind speed in m/s (hover to see current wind gust speed)